Impacts METAR Board INFO
IDs:

KBOS - Boston/Logan Intl, MA, US

Updated at: 1437 UTC 18 Dec 2017
Potential Impact None Slight Moderate High
Time18/02Z 18/03Z 18/04Z 18/05Z 18/06Z 18/07Z 18/08Z 18/09Z 18/10Z 18/11Z 18/12Z 18/13Z 18/14Z
VIS10 10 10 10 10 10 10 10 10 10 10 10 10
CIG150 150 220 220 220 150 150 80 60 55 29 26 24
CoverOVCOVCOVCOVCOVCOVCOVCOVCOVCOVCOVCOVCOVC
FltCatVFRVFRVFRVFRVFRVFRVFRVFRVFRVFRMVFRMVFRMVFR
WX--------------------------
WDir3603601035010101010360360200170
WSpd5 7 5 3 4 6 4 4 3 3 3 0 4
WGst-- -- -- -- -- -- -- -- -- -- -- -- --
Raw hourly METARs
KBOS 180154Z 36005KT 10SM FEW140 BKN150 OVC200 M03/M15 A3029 RMK AO2 SLP256 T10331150
KBOS 180254Z 36007KT 10SM BKN150 OVC200 M04/M15 A3027 RMK AO2 SLP250 T10391150 50000
KBOS 180354Z 01005KT 10SM SCT150 OVC220 M04/M14 A3026 RMK AO2 SLP245 T10441144
KBOS 180454Z 35003KT 10SM SCT150 OVC220 M05/M14 A3025 RMK AO2 SLP243 T10501139 410061067
KBOS 180554Z 01004KT 10SM SCT150 OVC220 M06/M14 A3024 RMK AO2 SLP240 T10561139 11028 21056 56010
KBOS 180654Z 01006KT 10SM BKN150 OVC220 M06/M14 A3025 RMK AO2 SLP243 T10561144
KBOS 180754Z 01004KT 10SM FEW090 BKN150 OVC220 M06/M14 A3025 RMK AO2 SLP241 T10561144
KBOS 180854Z 01004KT 10SM FEW060 OVC080 M05/M14 A3023 RMK AO2 SLP234 T10501144 58006
KBOS 180954Z 36003KT 10SM BKN060 OVC070 M05/M14 A3020 RMK AO2 SLP226 T10501144
KBOS 181054Z 36003KT 10SM OVC055 M04/M14 A3020 RMK AO2 SLP225 T10441139
KBOS 181154Z 02003KT 10SM OVC029 M04/M13 A3020 RMK AO2 SLP224 T10391128 11039 21056 56010
KBOS 181254Z 00000KT 10SM OVC026 M03/M11 A3019 RMK AO2 SLP222 T10281111
KBOS 181354Z 17004KT 10SM OVC024 M02/M12 A3018 RMK AO2 SLP218 T10221117